Drumnadrochit, United Kingdom
Current Conditions -  °F | °C
As of 8:20 AM on Saturday 25 Oct 2014 (Local Time) from EGPE Reporting Station
Rain Showers Rain Showers  
Wind Chill: 42°   Ceiling: Unl
Heat Index: 48°   Visibility: 6mi
Dew Point: 46°   Wind: 15mph
Humidity: 93%   Direction: 200°SSW
Pressure: 29.47"   Gusts: NA
Location:  57.33°N, 4.56°W
Report Text: EGPE 250720Z 20013KT 9999 -SHRA FEW020 SCT036 09/08 Q0998
Loading
Personal Weather Stations






























Interactive Weather Map
Tropical Storm Tracking
New forecast layout! Learn more

10-Day Weather Forecast

Advertisements
Track Severe Weather on mobile